createdAt,value
2019-02-07T09:31:30.404Z,101276.58
2019-02-07T09:32:30.869Z,101276.16
2019-02-07T09:33:32.068Z,101276.58
2019-02-07T09:34:32.524Z,101276.41
2019-02-07T09:35:33.361Z,101277.00
2019-02-07T09:36:34.326Z,101277.00
2019-02-07T09:37:34.966Z,101277.66
2019-02-07T09:38:35.481Z,101278.24
2019-02-07T09:39:35.244Z,101277.91
2019-02-07T09:40:36.903Z,101279.05
2019-02-07T09:41:37.039Z,101279.31
2019-02-07T09:42:37.901Z,101280.05
2019-02-07T09:43:38.550Z,101280.23
2019-02-07T09:44:39.110Z,101280.70
2019-02-07T09:45:39.912Z,101281.27
2019-02-07T09:46:40.453Z,101281.12
2019-02-07T09:47:39.923Z,101281.02
2019-02-07T09:48:41.480Z,101281.75
2019-02-07T09:49:40.933Z,101282.48
2019-02-07T09:50:42.585Z,101282.59
2019-02-07T09:51:43.236Z,101282.41
2019-02-07T09:52:43.752Z,101281.97
2019-02-07T09:53:44.121Z,101281.53
2019-02-07T09:54:44.759Z,101281.02
2019-02-07T09:55:44.344Z,101281.09
2019-02-07T09:56:45.943Z,101281.08
2019-02-07T09:57:46.434Z,101281.06
2019-02-07T09:58:47.059Z,101280.80
2019-02-07T09:59:48.042Z,101280.45
2019-02-07T10:00:48.725Z,101280.41
2019-02-07T10:01:49.260Z,101280.23
2019-02-07T10:02:50.227Z,101280.22
2019-02-07T10:03:51.036Z,101279.96
2019-02-07T10:04:50.638Z,101279.45
2019-02-07T10:05:52.363Z,101278.93
2019-02-07T10:06:52.829Z,101278.42
2019-02-07T10:07:53.300Z,101278.06
2019-02-07T10:08:53.760Z,101278.11
2019-02-07T10:09:54.369Z,101277.77
2019-02-07T10:10:54.938Z,101277.42
2019-02-07T10:11:55.752Z,101277.66
2019-02-07T10:12:55.195Z,101277.41
2019-02-07T10:13:56.673Z,101277.53
2019-02-07T10:14:57.431Z,101277.44
2019-02-07T10:15:58.089Z,101277.06
2019-02-07T10:16:58.607Z,101276.70
2019-02-07T10:17:59.115Z,101276.86
2019-02-07T10:18:59.691Z,101277.16
2019-02-07T10:20:00.544Z,101277.33
2019-02-07T10:21:00.016Z,101277.79
2019-02-07T10:21:12.073Z,101286.77
2019-02-07T10:22:13.478Z,101286.17
2019-02-07T10:23:13.079Z,101286.59
2019-02-07T10:24:14.975Z,101286.48
2019-02-07T10:25:15.501Z,101286.73
2019-02-07T10:26:16.189Z,101287.25
2019-02-07T10:27:16.846Z,101288.23
2019-02-07T10:28:17.356Z,101288.91
2019-02-07T10:29:17.932Z,101289.30
2019-02-07T10:30:18.515Z,101290.37
2019-02-07T10:31:18.218Z,101290.87
2019-02-07T10:32:19.970Z,101292.12
2019-02-07T10:33:20.398Z,101292.97
2019-02-07T10:34:21.152Z,101294.36
2019-02-07T10:35:23.106Z,101295.20
2019-02-07T10:36:21.576Z,101296.20
2019-02-07T10:37:23.084Z,101296.98
2019-02-07T10:38:23.580Z,101298.06
2019-02-07T10:39:23.108Z,101299.24
2019-02-07T10:40:24.595Z,101300.05
2019-02-07T10:41:25.138Z,101300.89
2019-02-07T10:42:25.644Z,101301.75
2019-02-07T10:43:26.238Z,101302.10
2019-02-07T10:44:26.737Z,101303.05
2019-02-07T10:45:27.283Z,101303.06
2019-02-07T10:46:27.294Z,101303.33
2019-02-07T10:47:30.475Z,101302.73
2019-02-07T10:48:27.487Z,101302.16
2019-02-07T10:49:29.263Z,101300.59
2019-02-07T10:50:29.488Z,101298.83
2019-02-07T10:51:30.171Z,101297.33
2019-02-07T10:52:30.604Z,101296.14
2019-02-07T10:53:31.460Z,101295.61
2019-02-07T10:54:32.072Z,101295.64
2019-02-07T10:55:32.852Z,101295.67
2019-02-07T10:56:31.904Z,101295.52
2019-02-07T10:57:33.493Z,101294.87
2019-02-07T10:58:34.227Z,101294.98
2019-02-07T10:59:34.829Z,101295.25
2019-02-07T11:00:35.357Z,101294.77
2019-02-07T11:01:35.040Z,101294.78
2019-02-07T11:02:36.592Z,101294.21
2019-02-07T11:03:37.192Z,101293.99
2019-02-07T11:04:36.648Z,101293.61
2019-02-07T11:05:38.226Z,101293.38
2019-02-07T11:06:38.827Z,101291.71
2019-02-07T11:07:39.572Z,101291.48
2019-02-07T11:08:40.154Z,101290.81
2019-02-07T11:09:40.707Z,101290.09
2019-02-07T11:09:51.252Z,101273.22
2019-02-07T11:10:52.726Z,101272.66
2019-02-07T11:11:53.303Z,101272.57
2019-02-07T11:12:53.880Z,101273.08
2019-02-07T11:13:54.457Z,101273.83
2019-02-07T11:14:54.019Z,101274.66
2019-02-07T11:15:55.804Z,101274.60
2019-02-07T11:16:56.780Z,101274.45
2019-02-07T11:17:57.420Z,101274.47
2019-02-07T11:18:57.909Z,101273.68
2019-02-07T11:19:58.347Z,101272.69
2019-02-07T11:20:58.678Z,101271.36
2019-02-07T11:21:59.292Z,101271.37
2019-02-07T11:22:59.739Z,101270.89
2019-02-07T11:24:00.361Z,101270.50
2019-02-07T11:24:59.421Z,101270.19
2019-02-07T11:26:01.085Z,101270.02
2019-02-07T11:27:01.593Z,101270.36
2019-02-07T11:28:10.242Z,101269.94
2019-02-07T11:29:02.102Z,101270.50
2019-02-07T11:30:03.629Z,101270.56
2019-02-07T11:31:04.199Z,101270.87
2019-02-07T11:32:03.717Z,101270.61
2019-02-07T11:33:05.500Z,101271.34
2019-02-07T11:34:06.247Z,101271.55
2019-02-07T11:35:06.399Z,101271.78
2019-02-07T11:36:07.349Z,101272.27
2019-02-07T11:37:07.922Z,101272.00
2019-02-07T11:38:08.621Z,101271.72
2019-02-07T11:39:08.733Z,101271.88
2019-02-07T11:40:08.369Z,101272.05
2019-02-07T11:41:09.618Z,101271.61
2019-02-07T11:42:10.286Z,101271.16
2019-02-07T11:43:11.180Z,101271.06
2019-02-07T11:44:11.812Z,101270.79
2019-02-07T11:45:12.556Z,101270.18
2019-02-07T11:46:13.236Z,101270.49
2019-02-07T11:47:14.215Z,101270.39
2019-02-07T11:48:14.838Z,101269.92
2019-02-07T11:49:14.563Z,101269.34
2019-02-07T11:50:16.129Z,101268.63
2019-02-07T11:51:16.141Z,101268.28
2019-02-07T11:52:17.011Z,101267.05
2019-02-07T11:53:17.767Z,101265.78
2019-02-07T11:54:18.532Z,101264.56
2019-02-07T11:55:19.213Z,101262.34
2019-02-07T11:56:19.843Z,101261.15
2019-02-07T11:57:19.633Z,101260.34
2019-02-07T11:58:21.083Z,101259.23
2019-02-07T11:58:31.127Z,101242.09
2019-02-07T11:59:32.922Z,101242.03
2019-02-07T12:00:33.749Z,101242.88
2019-02-07T12:01:34.353Z,101243.13
2019-02-07T12:02:34.989Z,101243.48
2019-02-07T12:03:35.927Z,101243.39
2019-02-07T12:04:38.265Z,101243.76
2019-02-07T12:05:37.057Z,101244.34
2019-02-07T12:06:37.984Z,101244.37
2019-02-07T12:07:37.638Z,101244.37
2019-02-07T12:08:39.422Z,101244.25
2019-02-07T12:09:40.356Z,101243.25
2019-02-07T12:10:40.992Z,101242.67
2019-02-07T12:11:41.175Z,101242.31
2019-02-07T12:12:41.876Z,101241.53
2019-02-07T12:13:42.766Z,101241.48
2019-02-07T12:14:43.594Z,101241.30
2019-02-07T12:15:43.638Z,101240.24
2019-02-07T12:16:42.834Z,101239.02
2019-02-07T12:17:44.145Z,101238.22
2019-02-07T12:18:45.890Z,101238.03
2019-02-07T12:19:45.481Z,101236.64
2019-02-07T12:20:46.476Z,101236.18
2019-02-07T12:21:47.300Z,101235.55
2019-02-07T12:22:47.564Z,101234.61
2019-02-07T12:23:48.439Z,101234.53
2019-02-07T12:24:48.428Z,101233.45
2019-02-07T12:25:49.831Z,101231.72
2019-02-07T12:26:50.731Z,101230.83
2019-02-07T12:27:51.487Z,101230.22
2019-02-07T12:28:52.409Z,101229.24
2019-02-07T12:29:53.100Z,101228.55
2019-02-07T12:30:54.060Z,101227.52
2019-02-07T12:31:54.960Z,101226.63
2019-02-07T12:32:54.571Z,101226.10
2019-02-07T12:33:56.386Z,101225.74
2019-02-07T12:34:55.665Z,101224.80
2019-02-07T12:35:57.688Z,101224.88
2019-02-07T12:36:58.391Z,101224.55
2019-02-07T12:37:59.038Z,101224.27
2019-02-07T12:38:59.854Z,101224.58
2019-02-07T12:40:00.764Z,101224.05
2019-02-07T12:41:01.571Z,101223.97
2019-02-07T12:42:01.301Z,101224.22
2019-02-07T12:43:02.948Z,101224.45
2019-02-07T12:44:03.248Z,101224.78
2019-02-07T12:45:03.942Z,101224.73
2019-02-07T12:45:14.560Z,101231.08
2019-02-07T12:46:15.868Z,101230.14
2019-02-07T12:47:15.780Z,101229.89
2019-02-07T12:48:16.990Z,101229.73
2019-02-07T12:49:28.736Z,101229.11
2019-02-07T12:50:16.903Z,101229.54
2019-02-07T12:51:18.481Z,101229.55
2019-02-07T12:52:18.257Z,101229.84
2019-02-07T12:53:19.892Z,101229.32
2019-02-07T12:54:20.841Z,101228.71
2019-02-07T12:55:21.682Z,101227.01
2019-02-07T12:56:21.469Z,101226.56
2019-02-07T12:57:23.250Z,101225.78
2019-02-07T12:58:23.825Z,101225.70
2019-02-07T12:59:24.612Z,101224.22
2019-02-07T13:00:24.354Z,101222.77
2019-02-07T13:01:26.084Z,101222.16
2019-02-07T13:02:26.247Z,101221.48
2019-02-07T13:03:26.972Z,101220.88
2019-02-07T13:04:27.775Z,101220.42
2019-02-07T13:05:28.448Z,101220.23
2019-02-07T13:06:28.489Z,101219.80
2019-02-07T13:07:28.848Z,101219.77
2019-02-07T13:08:29.660Z,101218.80
2019-02-07T13:09:29.461Z,101218.23
2019-02-07T13:10:31.045Z,101218.69
2019-02-07T13:11:31.796Z,101218.42
2019-02-07T13:12:31.376Z,101218.65
2019-02-07T13:13:32.060Z,101218.12
2019-02-07T13:14:32.884Z,101218.06
2019-02-07T13:15:32.968Z,101216.92
2019-02-07T13:16:34.646Z,101215.87
2019-02-07T13:17:34.547Z,101214.81
2019-02-07T13:18:35.421Z,101213.75
2019-02-07T13:19:40.693Z,101212.69
2019-02-07T13:20:36.224Z,101211.97
2019-02-07T13:21:38.001Z,101211.19
2019-02-07T13:22:37.846Z,101211.30
2019-02-07T13:23:39.474Z,101211.02
2019-02-07T13:24:40.316Z,101210.55
2019-02-07T13:25:39.956Z,101209.77
2019-02-07T13:26:40.823Z,101209.97
2019-02-07T13:27:41.395Z,101210.34
2019-02-07T13:28:43.192Z,101210.31
2019-02-07T13:29:43.768Z,101209.62
2019-02-07T13:30:43.432Z,101209.59
2019-02-07T13:31:44.032Z,101209.95
2019-02-07T13:32:45.669Z,101211.20
2019-02-07T13:33:45.539Z,101211.08
2019-02-07T13:34:46.221Z,101212.15
2019-02-07T13:35:47.001Z,101212.30
2019-02-07T13:36:47.886Z,101212.91
2019-02-07T13:37:49.494Z,101213.28
2019-02-07T13:38:50.277Z,101213.34
2019-02-07T13:39:50.948Z,101213.79
2019-02-07T13:40:51.838Z,101214.16
2019-02-07T13:41:52.684Z,101214.64
2019-02-07T13:42:53.366Z,101214.75
2019-02-07T13:43:52.484Z,101214.95
2019-02-07T13:44:54.364Z,101215.73
2019-02-07T13:45:54.454Z,101216.70
2019-02-07T13:46:55.097Z,101217.23
2019-02-07T13:47:04.153Z,101221.38
2019-02-07T13:48:05.730Z,101220.53
2019-02-07T13:49:06.439Z,101221.17
2019-02-07T13:50:07.337Z,101221.77
2019-02-07T13:51:07.934Z,101221.80
2019-02-07T13:52:08.274Z,101222.50
2019-02-07T13:53:07.909Z,101222.30
2019-02-07T13:54:08.982Z,101222.58
2019-02-07T13:55:09.850Z,101222.22
2019-02-07T13:56:10.586Z,101223.13
2019-02-07T13:57:11.201Z,101223.17
2019-02-07T13:58:11.142Z,101223.40
2019-02-07T13:59:12.743Z,101224.24
2019-02-07T14:00:13.355Z,101224.97
2019-02-07T14:01:13.977Z,101224.94
2019-02-07T14:02:13.794Z,101225.59
2019-02-07T14:03:15.485Z,101225.28
2019-02-07T14:04:16.264Z,101225.47
2019-02-07T14:05:17.238Z,101226.09
2019-02-07T14:06:17.972Z,101225.73
2019-02-07T14:07:18.742Z,101226.06
2019-02-07T14:08:18.822Z,101225.61
2019-02-07T14:09:19.673Z,101225.56
2019-02-07T14:10:19.487Z,101224.97
2019-02-07T14:11:20.561Z,101225.25
2019-02-07T14:12:21.260Z,101225.87
2019-02-07T14:13:20.838Z,101225.64
2019-02-07T14:14:22.452Z,101225.56
2019-02-07T14:15:23.262Z,101225.14
2019-02-07T14:16:24.083Z,101224.66
2019-02-07T14:17:24.972Z,101224.09
2019-02-07T14:18:25.736Z,101223.91
2019-02-07T14:19:25.546Z,101224.05
2019-02-07T14:20:27.450Z,101223.27
2019-02-07T14:21:28.059Z,101223.20
2019-02-07T14:22:28.416Z,101222.59
2019-02-07T14:23:29.890Z,101223.03
2019-02-07T14:24:28.912Z,101221.45
2019-02-07T14:25:30.534Z,101222.02
2019-02-07T14:26:31.262Z,101222.55
2019-02-07T14:27:31.093Z,101222.58
2019-02-07T14:28:33.015Z,101223.79
2019-02-07T14:29:33.822Z,101224.88
2019-02-07T14:30:34.066Z,101225.66
2019-02-07T14:31:34.704Z,101226.54
2019-02-07T14:32:35.382Z,101227.04
2019-02-07T14:33:36.092Z,101228.12
2019-02-07T14:34:36.780Z,101229.00
2019-02-07T14:35:37.455Z,101230.48
2019-02-07T14:36:36.831Z,101231.19
2019-02-07T14:37:38.590Z,101232.06
2019-02-07T14:38:39.386Z,101231.98
2019-02-07T14:38:51.430Z,101252.90
2019-02-07T14:39:53.154Z,101252.56
2019-02-07T14:40:53.942Z,101252.28
2019-02-07T14:41:54.836Z,101252.11
2019-02-07T14:42:54.809Z,101251.95
2019-02-07T14:43:56.871Z,101251.49
2019-02-07T14:44:55.805Z,101251.58
2019-02-07T14:45:57.704Z,101251.72
2019-02-07T14:46:57.082Z,101251.94
2019-02-07T14:47:58.870Z,101252.25
2019-02-07T14:48:59.617Z,101252.81
2019-02-07T14:50:00.004Z,101253.63
2019-02-07T14:50:59.913Z,101253.73
2019-02-07T14:52:01.805Z,101254.91
2019-02-07T14:53:02.228Z,101255.59
2019-02-07T14:54:01.890Z,101256.52
2019-02-07T14:55:02.138Z,101257.36
2019-02-07T14:59:20.608Z,101258.14
2019-02-07T15:00:20.639Z,101258.62
2019-02-07T15:01:20.901Z,101259.09
2019-02-07T15:02:20.999Z,101258.95
2019-02-07T15:03:21.782Z,101259.60
2019-02-07T15:04:22.770Z,101259.84
2019-02-07T15:05:21.836Z,101260.30
2019-02-07T15:06:23.690Z,101260.48
2019-02-07T15:07:26.570Z,101260.66
2019-02-07T15:08:24.117Z,101260.37
2019-02-07T15:09:25.979Z,101260.45
2019-02-07T15:10:27.739Z,101260.73
2019-02-07T15:11:28.887Z,101261.05
2019-02-07T15:12:26.855Z,101261.31
2019-02-07T15:13:34.981Z,101261.20
2019-02-07T15:14:28.091Z,101261.55
2019-02-07T15:15:30.987Z,101262.67
2019-02-07T15:16:29.521Z,101263.49
2019-02-07T15:17:33.469Z,101264.02
2019-02-07T15:18:33.676Z,101265.00
2019-02-07T15:19:33.862Z,101264.85
2019-02-07T15:20:31.523Z,101265.92
2019-02-07T15:21:34.128Z,101266.48
2019-02-07T15:22:32.519Z,101267.52
2019-02-07T15:23:34.380Z,101268.75
2019-02-07T15:24:41.818Z,101269.95
2019-02-07T15:25:34.313Z,101271.23
2019-02-07T15:26:38.704Z,101272.36
2019-02-07T15:27:42.996Z,101273.47
2019-02-07T15:28:36.604Z,101274.20
2019-02-07T15:29:36.984Z,101274.67
2019-02-07T15:30:38.607Z,101275.86
2019-02-07T15:31:38.043Z,101277.68
2019-02-07T15:32:40.442Z,101278.19
2019-02-07T15:35:55.376Z,101279.20
2019-02-07T15:36:56.226Z,101280.07
2019-02-07T15:38:00.954Z,101280.64
2019-02-07T15:38:57.035Z,101281.84
2019-02-07T15:39:57.372Z,101282.58
2019-02-07T15:41:06.348Z,101283.12
2019-02-07T15:42:06.542Z,101284.11
2019-02-07T15:43:07.363Z,101284.34
2019-02-07T15:44:10.682Z,101284.34
2019-02-07T15:45:11.293Z,101284.57
2019-02-07T15:46:09.396Z,101284.89
2019-02-07T15:47:09.619Z,101285.36
2019-02-07T15:48:10.269Z,101285.38
2019-02-07T15:49:10.844Z,101285.48
2019-02-07T15:50:12.171Z,101284.81
2019-02-07T15:51:12.958Z,101284.70
2019-02-07T15:52:14.203Z,101285.44
2019-02-07T15:53:14.438Z,101285.16
2019-02-07T15:54:12.981Z,101285.39
2019-02-07T15:55:56.407Z,101286.06
2019-02-07T15:57:01.132Z,101285.95
2019-02-07T15:58:37.921Z,101286.72
2019-02-07T15:59:55.753Z,101287.31
2019-02-07T16:00:38.344Z,101287.79
2019-02-07T16:01:38.508Z,101288.97
2019-02-07T16:02:38.739Z,101289.73
2019-02-07T16:03:46.735Z,101290.40
2019-02-07T16:04:42.510Z,101291.61
2019-02-07T16:05:41.027Z,101292.70
2019-02-07T16:06:41.089Z,101293.30
2019-02-07T16:07:42.936Z,101294.50
2019-02-07T16:08:44.233Z,101295.34
2019-02-07T16:09:42.735Z,101297.19
2019-02-07T16:10:44.610Z,101298.06
2019-02-07T16:11:45.557Z,101299.83
2019-02-07T16:12:46.292Z,101302.02
2019-02-07T16:14:05.206Z,101335.17
2019-02-07T16:15:02.864Z,101334.24
2019-02-07T16:16:03.606Z,101335.00
2019-02-07T16:17:05.563Z,101335.50
2019-02-07T16:18:05.641Z,101335.78
2019-02-07T16:19:06.131Z,101336.64
2019-02-07T16:20:06.009Z,101336.87
2019-02-07T16:21:07.493Z,101337.89
2019-02-07T16:22:08.380Z,101338.63
2019-02-07T16:23:08.537Z,101339.65
2019-02-07T16:24:16.762Z,101340.45
2019-02-07T16:25:09.290Z,101341.06
2019-02-07T16:26:16.980Z,101342.21
2019-02-07T16:27:10.342Z,101343.25
2019-02-07T16:28:10.639Z,101344.19
2019-02-07T16:29:11.422Z,101345.14
2019-02-07T16:30:12.625Z,101345.86
2019-02-07T16:31:13.122Z,101347.31
2019-02-07T16:32:21.735Z,101348.63
2019-02-07T16:33:15.506Z,101349.65
2019-02-07T16:34:13.259Z,101350.55
2019-02-07T16:35:13.880Z,101350.73
2019-02-07T16:36:14.116Z,101351.95
2019-02-07T16:37:17.827Z,101352.50
2019-02-07T16:38:14.336Z,101353.48
2019-02-07T16:39:15.791Z,101354.11
2019-02-07T16:40:16.234Z,101354.50
2019-02-07T16:41:16.165Z,101354.70
2019-02-07T16:42:19.013Z,101355.67
2019-02-07T16:46:54.449Z,101356.14
2019-02-07T16:48:38.836Z,101355.52
2019-02-07T16:49:37.580Z,101355.60
2019-02-07T16:50:39.285Z,101355.80
2019-02-07T16:51:39.086Z,101355.79
2019-02-07T16:52:36.573Z,101356.08
2019-02-07T16:52:42.197Z,101355.23
2019-02-07T16:53:43.082Z,101355.23
2019-02-07T16:58:10.875Z,101354.61
2019-02-07T16:59:11.585Z,101353.72
2019-02-07T17:00:05.559Z,101352.63
2019-02-07T17:01:04.573Z,101351.45
2019-02-07T17:02:04.999Z,101350.52
2019-02-07T17:03:05.540Z,101349.42
2019-02-07T17:04:05.947Z,101348.36
2019-02-07T17:05:07.858Z,101347.44
2019-02-07T17:06:07.321Z,101346.84
2019-02-07T17:07:09.144Z,101346.25
2019-02-07T17:08:09.134Z,101346.37
2019-02-07T17:09:12.747Z,101346.03
2019-02-07T17:10:53.559Z,101346.53
2019-02-07T17:11:53.642Z,101346.28
2019-02-07T17:12:53.825Z,101345.95
2019-02-07T17:13:53.950Z,101346.20
2019-02-07T17:15:01.292Z,101346.98
2019-02-07T17:18:11.112Z,101348.06
2019-02-07T17:19:11.317Z,101349.02
2019-02-07T17:20:14.782Z,101349.79
2019-02-07T17:21:12.956Z,101351.19
2019-02-07T17:25:31.093Z,101351.87
2019-02-07T17:26:31.688Z,101353.50
2019-02-07T17:27:34.336Z,101354.72
2019-02-07T17:31:13.197Z,101355.75
2019-02-07T17:32:07.911Z,101356.77
2019-02-07T17:33:13.488Z,101357.80
2019-02-07T17:34:08.343Z,101358.36
2019-02-07T17:35:06.973Z,101359.64
2019-02-07T17:36:08.938Z,101360.02
2019-02-07T17:37:08.587Z,101360.45
2019-02-07T17:38:10.503Z,101360.42
2019-02-07T17:39:09.571Z,101361.36
2019-02-07T17:40:10.442Z,101361.66
2019-02-07T17:41:18.988Z,101361.94
2019-02-07T17:42:12.268Z,101361.81
2019-02-07T17:43:20.732Z,101362.50
2019-02-07T17:44:15.519Z,101362.87
2019-02-07T17:45:14.166Z,101363.13
2019-02-07T17:46:16.118Z,101363.22
2019-02-07T17:47:16.861Z,101363.59
2019-02-07T17:48:17.366Z,101363.81
2019-02-07T17:49:17.602Z,101364.17
2019-02-07T17:50:18.223Z,101364.27
2019-02-07T17:51:23.203Z,101365.13
2019-02-07T17:52:17.938Z,101365.40
2019-02-07T17:53:19.487Z,101365.45
2019-02-07T17:54:19.324Z,101366.14
2019-02-07T17:55:40.965Z,101364.69
2019-02-07T17:56:32.442Z,101364.91
2019-02-07T17:57:33.326Z,101365.53
2019-02-07T17:58:35.945Z,101365.67
2019-02-07T17:59:36.469Z,101365.17
2019-02-07T18:00:34.665Z,101365.55
2019-02-07T18:01:35.096Z,101365.70
2019-02-07T18:02:36.483Z,101366.84
2019-02-07T18:03:36.190Z,101367.38
2019-02-07T18:04:37.972Z,101367.75
2019-02-07T18:05:45.148Z,101368.47
2019-02-07T18:06:38.231Z,101368.20
2019-02-07T18:07:39.122Z,101368.69
2019-02-07T18:08:40.013Z,101369.34
2019-02-07T18:09:41.133Z,101370.23
2019-02-07T18:10:42.184Z,101370.48
2019-02-07T18:11:41.944Z,101371.47
2019-02-07T18:12:43.659Z,101372.45
2019-02-07T18:13:44.550Z,101373.22
2019-02-07T18:14:44.953Z,101374.20
2019-02-07T18:15:45.890Z,101375.25
2019-02-07T18:16:45.301Z,101376.06
2019-02-07T18:17:45.954Z,101377.14
2019-02-07T18:18:47.346Z,101377.73
2019-02-07T18:19:48.305Z,101379.08
2019-02-07T18:20:48.082Z,101379.50
2019-02-07T18:21:49.895Z,101380.67
2019-02-07T18:22:49.981Z,101381.84
2019-02-07T18:23:49.576Z,101383.21
2019-02-07T18:24:51.336Z,101384.89
2019-02-07T18:25:54.282Z,101386.25
2019-02-07T18:26:54.010Z,101387.52
2019-02-07T18:27:52.533Z,101388.69
2019-02-07T18:28:52.768Z,101390.14
2019-02-07T18:29:54.143Z,101391.41
2019-02-07T18:30:55.743Z,101392.73
2019-02-07T18:31:53.609Z,101393.35
2019-02-07T18:32:53.675Z,101394.47
2019-02-07T18:33:54.518Z,101395.58
2019-02-07T18:34:56.290Z,101396.36
2019-02-07T18:35:57.281Z,101397.39
2019-02-07T18:36:57.113Z,101398.56
2019-02-07T18:37:57.439Z,101399.34
2019-02-07T18:39:00.452Z,101400.84
2019-02-07T18:39:58.459Z,101401.45
2019-02-07T18:41:02.451Z,101401.90
2019-02-07T18:41:59.631Z,101402.42
2019-02-07T18:43:00.476Z,101402.78
2019-02-07T18:44:02.046Z,101403.47
2019-02-07T18:45:01.694Z,101404.33
2019-02-07T18:46:02.404Z,101404.70
2019-02-07T18:47:04.155Z,101405.48
2019-02-07T18:48:03.152Z,101406.28
2019-02-07T18:49:04.487Z,101407.22
2019-02-07T18:50:05.420Z,101408.45
2019-02-07T18:51:06.274Z,101410.11
2019-02-07T18:52:06.818Z,101410.73
2019-02-07T18:53:05.789Z,101411.78
2019-02-07T18:54:07.428Z,101413.16
2019-02-07T18:55:08.107Z,101414.32
2019-02-07T18:56:08.414Z,101415.37
2019-02-07T18:57:09.036Z,101416.41
2019-02-07T18:58:09.751Z,101417.69
2019-02-07T18:59:10.564Z,101418.82
2019-02-07T19:00:11.356Z,101420.02
2019-02-07T19:01:11.080Z,101421.27
2019-02-07T19:02:11.868Z,101422.45
2019-02-07T19:03:13.604Z,101423.20
2019-02-07T19:04:13.153Z,101425.16
2019-02-07T19:05:23.040Z,101451.86
2019-02-07T19:06:23.431Z,101451.09
2019-02-07T19:07:23.660Z,101450.67
2019-02-07T19:08:31.951Z,101450.25
2019-02-07T19:09:32.121Z,101450.61
2019-02-07T19:10:32.701Z,101450.69
2019-02-07T19:11:25.886Z,101450.63
2019-02-07T19:12:27.694Z,101450.65
2019-02-07T19:13:30.275Z,101450.98
2019-02-07T19:14:28.150Z,101451.75
2019-02-07T19:15:36.565Z,101452.20
2019-02-07T19:16:29.852Z,101452.72
2019-02-07T19:17:30.926Z,101453.15
2019-02-07T19:18:30.122Z,101453.84
2019-02-07T19:19:31.244Z,101454.14
2019-02-07T19:20:31.916Z,101454.65
2019-02-07T19:21:31.227Z,101455.17
2019-02-07T19:22:32.533Z,101455.19
2019-02-07T19:23:35.052Z,101455.38
2019-02-07T19:24:32.824Z,101455.22
2019-02-07T19:25:33.113Z,101455.02
2019-02-07T19:26:33.179Z,101454.95
2019-02-07T19:27:35.019Z,101454.63
2019-02-07T19:28:35.768Z,101454.48
2019-02-07T19:29:35.436Z,101454.50
2019-02-07T19:30:36.294Z,101454.52
2019-02-07T19:31:37.043Z,101454.27
2019-02-07T19:32:37.633Z,101454.29
2019-02-07T19:33:38.720Z,101454.39
2019-02-07T19:34:38.873Z,101454.08
2019-02-07T19:35:38.772Z,101454.09
2019-02-07T19:36:38.839Z,101454.37
2019-02-07T19:37:40.344Z,101454.47
2019-02-07T19:38:40.313Z,101454.57
2019-02-07T19:39:41.270Z,101455.15
2019-02-07T19:40:42.362Z,101455.37
2019-02-07T19:41:42.834Z,101455.46
2019-02-07T19:42:42.829Z,101455.39
2019-02-07T19:43:42.053Z,101455.35
2019-02-07T19:44:43.637Z,101455.61
2019-02-07T19:45:44.553Z,101455.45
2019-02-07T19:46:44.630Z,101455.58
2019-02-07T19:47:44.668Z,101455.77
2019-02-07T19:48:45.276Z,101456.27
2019-02-07T19:49:45.526Z,101456.87
2019-02-07T19:50:46.321Z,101457.27
2019-02-07T19:51:47.006Z,101457.36
2019-02-07T19:52:47.906Z,101457.87
2019-02-07T19:53:48.823Z,101457.92
2019-02-07T19:54:49.747Z,101458.77
2019-02-07T19:55:49.995Z,101459.25
2019-02-07T19:56:49.941Z,101459.65
2019-02-07T19:57:49.909Z,101460.08
2019-02-07T19:58:51.590Z,101460.39
2019-02-07T19:59:50.695Z,101460.91
2019-02-07T20:00:51.491Z,101461.89
2019-02-07T20:01:53.276Z,101462.52
2019-02-07T20:02:54.047Z,101463.51
2019-02-07T20:03:54.771Z,101464.50
2019-02-07T20:04:58.007Z,101465.73
2019-02-07T20:05:55.147Z,101466.02
2019-02-07T20:06:56.314Z,101466.91
2019-02-07T20:07:55.720Z,101467.16
2019-02-07T20:08:55.723Z,101467.77
2019-02-07T20:09:57.453Z,101468.16
2019-02-07T20:11:57.027Z,101489.23
2019-02-07T20:12:54.370Z,101488.34
2019-02-07T20:13:54.395Z,101488.34
2019-02-07T20:14:55.147Z,101489.06
2019-02-07T20:15:57.843Z,101489.06
2019-02-07T20:16:56.531Z,101489.18
2019-02-07T20:17:59.804Z,101488.90
2019-02-07T20:18:57.405Z,101489.08
2019-02-07T20:19:58.250Z,101489.72
2019-02-07T20:20:58.494Z,101490.14
2019-02-07T20:22:00.428Z,101491.13
2019-02-07T20:23:00.432Z,101492.56
2019-02-07T20:24:00.454Z,101493.12
2019-02-07T20:25:01.347Z,101494.64
2019-02-07T20:26:03.279Z,101496.30
2019-02-07T20:27:10.318Z,101497.64
2019-02-07T20:28:03.597Z,101498.93
2019-02-07T20:29:06.398Z,101499.60
2019-02-07T20:30:03.989Z,101500.50
2019-02-07T20:31:06.644Z,101501.93
2019-02-07T20:32:04.455Z,101503.44
2019-02-07T20:33:06.355Z,101504.70
2019-02-07T20:34:05.951Z,101506.48
2019-02-07T20:35:10.153Z,101508.25
2019-02-07T20:36:07.594Z,101509.84
2019-02-07T20:37:27.347Z,101511.09
2019-02-07T20:38:08.836Z,101511.55
2019-02-07T20:39:08.962Z,101513.64
2019-02-07T20:40:12.731Z,101514.92
2019-02-07T20:41:27.087Z,101516.59
2019-02-07T20:42:10.367Z,101518.20
2019-02-07T20:43:10.924Z,101520.50
2019-02-07T20:44:11.579Z,101522.70
2019-02-07T20:45:13.106Z,101524.22
2019-02-07T20:46:12.365Z,101525.67
2019-02-07T20:47:13.301Z,101528.31
2019-02-07T20:48:15.144Z,101530.42
2019-02-07T20:49:15.648Z,101532.14
2019-02-07T20:50:16.537Z,101534.09
2019-02-07T20:51:19.108Z,101535.70
2019-02-07T20:52:18.507Z,101538.24
2019-02-07T20:53:16.538Z,101539.77
2019-02-07T20:54:16.627Z,101541.38
2019-02-07T20:55:18.422Z,101541.89
2019-02-07T20:56:19.517Z,101543.51
2019-02-07T20:57:18.481Z,101544.70
2019-02-07T20:58:18.798Z,101546.15
2019-02-07T20:59:19.527Z,101547.09
2019-02-07T21:00:21.466Z,101548.11
2019-02-07T21:01:22.331Z,101548.97
2019-02-07T21:02:22.121Z,101550.42
2019-02-07T21:03:23.065Z,101551.44
2019-02-07T21:04:24.745Z,101552.97
2019-02-07T21:05:25.305Z,101553.82
2019-02-07T21:06:28.309Z,101555.16
2019-02-07T21:07:25.816Z,101556.69
2019-02-07T21:08:26.707Z,101557.55
2019-02-07T21:09:27.814Z,101558.63
2019-02-07T21:10:29.351Z,101559.92
2019-02-07T21:11:27.685Z,101560.92
2019-02-07T21:12:29.257Z,101562.45
2019-02-07T21:13:28.959Z,101563.56
2019-02-07T21:14:31.862Z,101564.98
2019-02-07T21:15:33.090Z,101566.52
2019-02-07T21:16:30.688Z,101567.53
2019-02-07T21:17:32.607Z,101568.98
2019-02-07T21:18:31.632Z,101569.84
2019-02-07T21:19:33.147Z,101570.66
2019-02-07T21:20:32.803Z,101572.20
2019-02-07T21:21:34.123Z,101572.80